createdAt,value
2018-04-12T00:00:12.849Z,58.60
2018-04-12T00:02:39.825Z,58.90
2018-04-12T00:05:06.059Z,58.90
2018-04-12T00:07:32.265Z,58.80
2018-04-12T00:09:58.524Z,59.30
2018-04-12T00:12:24.756Z,59.50
2018-04-12T00:14:50.949Z,59.10
2018-04-12T00:17:17.171Z,58.90
2018-04-12T00:19:44.117Z,59.00
2018-04-12T00:22:11.113Z,58.90
2018-04-12T00:24:37.373Z,58.70
2018-04-12T00:27:04.357Z,59.10
2018-04-12T00:29:30.632Z,59.00
2018-04-12T00:31:56.909Z,59.20
2018-04-12T00:34:23.146Z,59.50
2018-04-12T00:36:49.409Z,60.30
2018-04-12T00:39:15.681Z,60.70
2018-04-12T00:41:41.916Z,60.30
2018-04-12T00:44:08.132Z,60.10
2018-04-12T00:46:34.389Z,60.50
2018-04-12T00:49:00.564Z,60.40
2018-04-12T00:51:26.763Z,60.30
2018-04-12T00:54:05.061Z,60.60
2018-04-12T00:56:31.328Z,60.50
2018-04-12T00:58:57.557Z,60.00
2018-04-12T01:01:23.765Z,59.80
2018-04-12T01:03:50.002Z,60.00
2018-04-12T01:06:16.290Z,60.30
2018-04-12T01:08:42.556Z,61.10
2018-04-12T01:11:08.755Z,60.00
2018-04-12T01:13:35.005Z,60.30
2018-04-12T01:16:01.271Z,60.50
2018-04-12T01:18:28.279Z,60.30
2018-04-12T01:20:54.522Z,60.30
2018-04-12T01:23:20.751Z,60.70
2018-04-12T01:25:47.035Z,60.40
2018-04-12T01:28:13.250Z,60.50
2018-04-12T01:30:39.532Z,60.30
2018-04-12T01:33:15.869Z,60.10
2018-04-12T01:35:42.239Z,60.20
2018-04-12T01:38:08.505Z,59.90
2018-04-12T01:40:34.802Z,60.40
2018-04-12T01:43:01.027Z,60.30
2018-04-12T01:45:27.282Z,60.40
2018-04-12T01:47:53.579Z,60.60
2018-04-12T01:50:19.870Z,60.80
2018-04-12T01:52:46.119Z,60.60
2018-04-12T01:55:12.459Z,60.50
2018-04-12T01:57:38.734Z,60.80
2018-04-12T02:00:04.997Z,61.10
2018-04-12T02:02:31.313Z,60.90
2018-04-12T02:04:57.585Z,60.70
2018-04-12T02:07:23.886Z,60.90
2018-04-12T02:09:50.175Z,61.00
2018-04-12T02:12:17.199Z,61.60
2018-04-12T02:14:43.401Z,61.60
2018-04-12T02:17:09.678Z,61.40
2018-04-12T02:19:35.955Z,61.40
2018-04-12T02:22:02.254Z,61.10
2018-04-12T02:24:28.511Z,60.90
2018-04-12T02:26:54.760Z,61.20
2018-04-12T02:29:21.038Z,61.30
2018-04-12T02:31:47.254Z,61.20
2018-04-12T02:34:13.501Z,61.20
2018-04-12T02:36:39.761Z,60.90
2018-04-12T02:39:06.024Z,61.50
2018-04-12T02:41:33.038Z,62.20
2018-04-12T02:43:59.326Z,62.20
2018-04-12T02:46:25.550Z,61.90
2018-04-12T02:48:51.765Z,62.30
2018-04-12T02:51:18.116Z,62.20
2018-04-12T02:53:44.367Z,61.90
2018-04-12T02:56:10.598Z,62.00
2018-04-12T02:58:36.911Z,61.70
2018-04-12T03:01:03.202Z,61.90
2018-04-12T03:03:29.566Z,61.90
2018-04-12T03:05:55.839Z,62.10
2018-04-12T03:08:22.074Z,62.60
2018-04-12T03:10:48.326Z,63.00
2018-04-12T03:13:15.374Z,62.90
2018-04-12T03:15:42.386Z,63.20
2018-04-12T03:18:08.666Z,63.20
2018-04-12T03:20:34.958Z,63.30
2018-04-12T03:23:01.948Z,63.50
2018-04-12T03:25:28.234Z,63.10
2018-04-12T03:27:54.505Z,63.20
2018-04-12T03:30:20.782Z,63.40
2018-04-12T03:32:47.130Z,63.20
2018-04-12T03:35:13.689Z,63.40
2018-04-12T03:37:40.122Z,63.70
2018-04-12T03:40:06.619Z,64.60
2018-04-12T03:42:33.086Z,64.00
2018-04-12T03:44:59.636Z,64.00
2018-04-12T03:47:26.175Z,64.40
2018-04-12T03:49:52.674Z,64.00
2018-04-12T03:52:19.026Z,64.10
2018-04-12T03:54:45.440Z,64.30
2018-04-12T03:57:11.976Z,63.90
2018-04-12T03:59:38.468Z,63.40
2018-04-12T04:02:04.870Z,63.70
2018-04-12T04:04:31.286Z,64.10
2018-04-12T04:06:57.903Z,64.30
2018-04-12T04:09:24.369Z,65.00
2018-04-12T04:11:50.832Z,65.20
2018-04-12T04:14:29.490Z,64.10
2018-04-12T04:17:07.987Z,64.00
2018-04-12T04:19:46.612Z,64.70
2018-04-12T04:22:12.935Z,65.00
2018-04-12T04:24:39.169Z,64.70
2018-04-12T04:27:05.449Z,64.60
2018-04-12T04:29:31.786Z,64.60
2018-04-12T04:31:58.030Z,64.50
2018-04-12T04:34:24.294Z,64.70
2018-04-12T04:36:51.377Z,64.50
2018-04-12T04:39:17.688Z,64.40
2018-04-12T04:41:44.723Z,64.70
2018-04-12T04:44:11.780Z,65.00
2018-04-12T04:46:38.742Z,64.40
2018-04-12T04:49:05.040Z,64.40
2018-04-12T04:51:31.331Z,64.80
2018-04-12T04:53:57.594Z,63.90
2018-04-12T04:56:23.874Z,64.10
2018-04-12T04:58:50.150Z,64.10
2018-04-12T05:01:16.528Z,64.60
2018-04-12T05:03:43.540Z,65.50
2018-04-12T05:06:10.583Z,65.00
2018-04-12T05:08:36.880Z,64.80
2018-04-12T05:11:03.114Z,65.70
2018-04-12T05:13:31.446Z,65.40
2018-04-12T05:15:57.846Z,65.40
2018-04-12T05:18:24.113Z,65.70
2018-04-12T05:20:50.398Z,65.70
2018-04-12T05:23:16.722Z,65.30
2018-04-12T05:25:43.057Z,65.20
2018-04-12T05:28:09.345Z,66.00
2018-04-12T05:30:35.602Z,66.40
2018-04-12T05:33:01.918Z,67.60
2018-04-12T05:35:28.254Z,68.50
2018-04-12T05:37:54.493Z,69.20
2018-04-12T05:40:20.770Z,69.70
2018-04-12T05:42:47.027Z,69.80
2018-04-12T05:45:13.267Z,69.80
2018-04-12T05:47:39.525Z,68.90
2018-04-12T05:50:05.813Z,68.80
2018-04-12T05:52:32.123Z,71.40
2018-04-12T05:54:58.427Z,69.50
2018-04-12T05:57:25.434Z,69.60
2018-04-12T05:59:51.692Z,69.40
2018-04-12T06:02:18.745Z,69.00
2018-04-12T06:04:45.781Z,68.70
2018-04-12T06:07:12.065Z,68.60
2018-04-12T06:09:38.362Z,68.80
2018-04-12T06:12:04.677Z,68.60
2018-04-12T06:14:30.914Z,68.60
2018-04-12T06:16:57.886Z,69.10
2018-04-12T06:19:24.177Z,69.10
2018-04-12T06:21:50.454Z,69.00
2018-04-12T06:24:16.797Z,69.70
2018-04-12T06:26:43.073Z,68.90
2018-04-12T06:29:10.047Z,69.30
2018-04-12T06:31:36.271Z,69.30
2018-04-12T06:34:02.594Z,69.30
2018-04-12T06:36:28.880Z,69.40
2018-04-12T06:38:55.169Z,69.60
2018-04-12T06:41:21.501Z,69.40
2018-04-12T06:43:47.757Z,70.00
2018-04-12T06:46:14.005Z,70.30
2018-04-12T06:48:40.271Z,70.90
2018-04-12T06:51:06.512Z,70.90
2018-04-12T06:53:32.809Z,71.90
2018-04-12T06:55:59.804Z,72.30
2018-04-12T06:58:26.108Z,72.30
2018-04-12T07:00:52.436Z,72.30
2018-04-12T07:03:18.684Z,72.10
2018-04-12T07:05:45.000Z,72.50
2018-04-12T07:08:11.279Z,72.50
2018-04-12T07:10:37.570Z,71.90
2018-04-12T07:13:03.877Z,73.00
2018-04-12T07:15:30.158Z,71.40
2018-04-12T07:17:56.483Z,71.20
2018-04-12T07:20:22.717Z,72.10
2018-04-12T07:22:48.980Z,72.80
2018-04-12T07:25:16.008Z,72.90
2018-04-12T07:27:42.296Z,72.80
2018-04-12T07:30:08.562Z,72.90
2018-04-12T07:32:34.841Z,72.60
2018-04-12T07:35:01.148Z,72.90
2018-04-12T07:37:27.386Z,72.50
2018-04-12T07:39:53.679Z,72.60
2018-04-12T07:42:19.960Z,72.50
2018-04-12T07:44:46.224Z,72.30
2018-04-12T07:47:12.525Z,72.30
2018-04-12T07:49:38.836Z,72.00
2018-04-12T07:52:05.117Z,72.40
2018-04-12T07:54:31.411Z,72.30
2018-04-12T07:56:57.670Z,72.30
2018-04-12T07:59:23.970Z,72.10
2018-04-12T08:01:50.308Z,72.10
2018-04-12T08:04:16.630Z,72.00
2018-04-12T08:06:42.930Z,71.50
2018-04-12T08:09:09.248Z,72.00
2018-04-12T08:11:35.532Z,72.00
2018-04-12T08:14:01.839Z,72.60
2018-04-12T08:16:28.148Z,72.10
2018-04-12T08:18:55.177Z,71.20
2018-04-12T08:21:22.238Z,70.80
2018-04-12T08:23:49.242Z,70.10
2018-04-12T08:26:15.542Z,70.10
2018-04-12T08:28:41.864Z,69.60
2018-04-12T08:31:08.114Z,70.30
2018-04-12T08:33:34.358Z,70.10
2018-04-12T08:36:00.597Z,70.10
2018-04-12T08:38:26.888Z,70.50
2018-04-12T08:40:53.212Z,69.40
2018-04-12T08:43:19.447Z,67.30
2018-04-12T08:45:45.762Z,67.80
2018-04-12T08:48:12.041Z,65.80
2018-04-12T08:50:38.319Z,65.60
2018-04-12T08:53:04.619Z,65.70
2018-04-12T08:55:30.902Z,64.90
2018-04-12T08:57:57.199Z,65.00
2018-04-12T09:00:24.247Z,64.60
2018-04-12T09:02:51.271Z,63.80
2018-04-12T09:05:17.590Z,63.80
2018-04-12T09:07:43.905Z,64.10
2018-04-12T09:10:10.175Z,64.20
2018-04-12T09:12:37.144Z,63.80
2018-04-12T09:15:03.406Z,63.70
2018-04-12T09:17:29.675Z,64.10
2018-04-12T09:19:55.874Z,64.60
2018-04-12T09:22:22.163Z,65.00
2018-04-12T09:24:48.447Z,65.50
2018-04-12T09:27:14.760Z,65.20
2018-04-12T09:29:41.004Z,65.30
2018-04-12T09:32:07.263Z,65.30
2018-04-12T09:34:33.531Z,64.50
2018-04-12T09:36:59.760Z,64.00
2018-04-12T09:39:26.032Z,63.10
2018-04-12T09:41:53.107Z,62.60
2018-04-12T09:44:19.352Z,62.50
2018-04-12T09:46:45.627Z,62.30
2018-04-12T09:49:11.845Z,62.10
2018-04-12T09:51:38.160Z,61.80
2018-04-12T09:54:04.579Z,61.80
2018-04-12T09:56:31.039Z,61.80
2018-04-12T09:58:58.225Z,60.60
2018-04-12T10:01:24.767Z,60.50
2018-04-12T10:03:51.088Z,60.70
2018-04-12T10:06:22.213Z,61.00
2018-04-12T10:08:54.684Z,60.50
2018-04-12T10:11:20.980Z,60.70
2018-04-12T10:13:47.240Z,60.50
2018-04-12T10:16:13.520Z,60.10
2018-04-12T10:18:39.770Z,60.30
2018-04-12T10:21:06.000Z,60.20
2018-04-12T10:23:32.312Z,60.30
2018-04-12T10:25:58.560Z,59.30
2018-04-12T10:28:24.831Z,59.80
2018-04-12T10:30:51.851Z,60.40
2018-04-12T10:33:18.127Z,60.40
2018-04-12T10:35:44.375Z,59.80
2018-04-12T10:38:10.651Z,59.90
2018-04-12T10:40:36.955Z,60.30
2018-04-12T10:43:03.212Z,59.90
2018-04-12T10:45:30.247Z,58.70
2018-04-12T10:47:56.528Z,58.70
2018-04-12T10:50:22.812Z,56.70
2018-04-12T10:52:49.116Z,58.00
2018-04-12T10:55:15.408Z,54.50
2018-04-12T10:57:41.701Z,53.70
2018-04-12T11:00:07.965Z,53.00
2018-04-12T11:02:34.275Z,52.60
2018-04-12T11:05:01.318Z,51.30
2018-04-12T11:07:27.619Z,51.20
2018-04-12T11:09:53.877Z,51.20
2018-04-12T11:12:21.011Z,51.30
2018-04-12T11:14:47.975Z,50.70
2018-04-12T11:17:14.271Z,50.60
2018-04-12T11:19:40.585Z,49.80
2018-04-12T11:22:06.874Z,49.80
2018-04-12T11:24:33.951Z,48.50
2018-04-12T11:27:00.201Z,48.50
2018-04-12T11:29:26.445Z,49.30
2018-04-12T11:31:52.757Z,49.80
2018-04-12T11:34:19.087Z,49.80
2018-04-12T11:36:45.321Z,48.40
2018-04-12T11:39:12.364Z,47.90
2018-04-12T11:41:38.605Z,47.90
2018-04-12T11:44:04.856Z,46.80
2018-04-12T11:46:31.908Z,46.10
2018-04-12T11:48:58.948Z,45.60
2018-04-12T11:51:25.166Z,45.60
2018-04-12T11:53:51.454Z,44.70
2018-04-12T11:56:17.742Z,44.40
2018-04-12T11:58:44.737Z,44.50
2018-04-12T12:01:10.958Z,44.50
2018-04-12T12:03:37.155Z,45.10
2018-04-12T12:06:04.209Z,43.00
2018-04-12T12:08:30.473Z,43.00
2018-04-12T12:10:56.937Z,43.90
2018-04-12T12:13:23.172Z,43.10
2018-04-12T12:15:50.177Z,45.20
2018-04-12T12:18:16.439Z,44.50
2018-04-12T12:20:42.728Z,42.00
2018-04-12T12:23:08.995Z,42.40
2018-04-12T12:25:35.298Z,42.80
2018-04-12T12:28:01.548Z,44.50
2018-04-12T12:30:27.802Z,41.30
2018-04-12T12:32:54.795Z,41.80
2018-04-12T12:35:21.068Z,41.80
2018-04-12T12:37:48.067Z,40.70
2018-04-12T12:40:14.310Z,40.70
2018-04-12T12:42:40.610Z,41.50
2018-04-12T12:45:06.837Z,39.90
2018-04-12T12:47:33.145Z,39.90
2018-04-12T12:50:00.169Z,40.80
2018-04-12T12:52:26.401Z,40.60
2018-04-12T12:54:53.446Z,38.90
2018-04-12T12:57:20.480Z,39.20
2018-04-12T12:59:46.814Z,38.70
2018-04-12T13:02:13.917Z,37.50
2018-04-12T13:04:40.291Z,37.40
2018-04-12T13:07:07.398Z,39.00
2018-04-12T13:09:33.715Z,38.90
2018-04-12T13:12:00.012Z,39.90
2018-04-12T13:14:26.350Z,38.40
2018-04-12T13:16:53.359Z,38.50
2018-04-12T13:19:19.643Z,38.40
2018-04-12T13:21:45.883Z,37.70
2018-04-12T13:24:12.182Z,37.10
2018-04-12T13:26:38.563Z,37.50
2018-04-12T13:29:04.899Z,37.40
2018-04-12T13:31:31.200Z,37.20
2018-04-12T13:33:57.521Z,37.60
2018-04-12T13:36:23.759Z,37.80
2018-04-12T13:38:50.093Z,38.20
2018-04-12T13:41:16.412Z,38.30
2018-04-12T13:43:42.706Z,38.80
2018-04-12T13:46:08.999Z,37.70
2018-04-12T13:48:35.297Z,36.60
2018-04-12T13:51:02.334Z,37.50
2018-04-12T13:53:29.373Z,37.50
2018-04-12T13:55:56.414Z,38.50
2018-04-12T13:58:23.426Z,38.30
2018-04-12T14:00:49.750Z,38.00
2018-04-12T14:03:16.018Z,38.20
2018-04-12T14:05:42.279Z,37.50
2018-04-12T14:08:09.557Z,38.10
2018-04-12T14:10:35.784Z,38.30
2018-04-12T14:13:02.039Z,38.90
2018-04-12T14:15:28.317Z,38.00
2018-04-12T14:17:54.620Z,39.40
2018-04-12T14:20:21.244Z,36.90
2018-04-12T14:22:47.617Z,37.50
2018-04-12T14:25:13.916Z,36.50
2018-04-12T14:27:41.012Z,36.70
2018-04-12T14:30:07.288Z,36.60
2018-04-12T14:32:33.601Z,37.40
2018-04-12T14:35:00.745Z,37.70
2018-04-12T14:37:27.044Z,37.00
2018-04-12T14:39:53.300Z,36.50
2018-04-12T14:42:19.557Z,37.70
2018-04-12T14:44:45.899Z,38.80
2018-04-12T14:47:12.928Z,38.60
2018-04-12T14:49:39.181Z,38.50
2018-04-12T14:52:06.149Z,38.80
2018-04-12T14:54:32.493Z,38.80
2018-04-12T14:56:58.726Z,38.70
2018-04-12T14:59:24.968Z,38.90
2018-04-12T15:01:51.293Z,38.10
2018-04-12T15:04:17.645Z,39.10
2018-04-12T15:06:43.976Z,41.00
2018-04-12T15:09:11.074Z,37.30
2018-04-12T15:11:38.567Z,37.30
2018-04-12T15:14:05.236Z,37.70
2018-04-12T15:16:31.496Z,37.10
2018-04-12T15:18:57.771Z,37.50
2018-04-12T15:21:24.115Z,36.90
2018-04-12T15:23:50.328Z,36.30
2018-04-12T15:26:16.592Z,37.00
2018-04-12T15:28:43.633Z,35.20
2018-04-12T15:31:10.605Z,35.10
2018-04-12T15:33:36.903Z,34.40
2018-04-12T15:36:03.971Z,33.80
2018-04-12T15:38:30.265Z,33.80
2018-04-12T15:40:56.707Z,34.60
2018-04-12T15:43:23.126Z,34.40
2018-04-12T15:45:49.627Z,33.50
2018-04-12T15:48:16.097Z,32.50
2018-04-12T15:50:42.623Z,32.40
2018-04-12T15:53:09.131Z,30.80
2018-04-12T15:55:35.698Z,33.40
2018-04-12T15:58:02.203Z,34.30
2018-04-12T16:00:28.719Z,32.80
2018-04-12T16:02:55.187Z,33.10
2018-04-12T16:05:22.395Z,34.00
2018-04-12T16:07:48.912Z,33.90
2018-04-12T16:10:15.388Z,32.60
2018-04-12T16:12:41.955Z,31.00
2018-04-12T16:15:08.459Z,32.50
2018-04-12T16:17:35.096Z,32.50
2018-04-12T16:20:01.561Z,32.00
2018-04-12T16:22:28.624Z,33.20
2018-04-12T16:24:54.858Z,33.10
2018-04-12T16:27:21.054Z,34.90
2018-04-12T16:29:47.324Z,35.70
2018-04-12T16:32:14.323Z,33.30
2018-04-12T16:34:40.619Z,33.20
2018-04-12T16:37:06.948Z,34.80
2018-04-12T16:39:33.228Z,34.20
2018-04-12T16:41:59.537Z,35.10
2018-04-12T16:44:25.837Z,35.60
2018-04-12T16:46:52.209Z,34.00
2018-04-12T16:49:18.482Z,34.40
2018-04-12T16:51:45.539Z,38.30
2018-04-12T16:54:11.763Z,38.30
2018-04-12T16:56:38.750Z,39.80
2018-04-12T16:59:05.056Z,39.80
2018-04-12T17:01:31.268Z,39.40
2018-04-12T17:03:57.507Z,40.50
2018-04-12T17:06:23.853Z,40.50
2018-04-12T17:08:50.072Z,40.90
2018-04-12T17:11:16.365Z,41.40
2018-04-12T17:13:42.653Z,42.30
2018-04-12T17:16:09.005Z,42.40
2018-04-12T17:18:35.283Z,42.30
2018-04-12T17:21:01.597Z,42.30
2018-04-12T17:23:27.857Z,43.10
2018-04-12T17:25:54.097Z,42.90
2018-04-12T17:28:20.459Z,43.50
2018-04-12T17:30:46.730Z,43.30
2018-04-12T17:33:12.986Z,43.70
2018-04-12T17:35:39.264Z,44.20
2018-04-12T17:38:06.301Z,44.90
2018-04-12T17:40:33.328Z,44.90
2018-04-12T17:42:59.666Z,44.90
2018-04-12T17:45:25.946Z,44.90
2018-04-12T17:47:52.233Z,44.90
2018-04-12T17:50:19.274Z,45.70
2018-04-12T17:52:45.528Z,45.60
2018-04-12T17:55:12.517Z,45.80
2018-04-12T17:57:38.779Z,45.80
2018-04-12T18:00:05.303Z,45.70
2018-04-12T18:02:32.409Z,45.80
2018-04-12T18:04:58.638Z,45.80
2018-04-12T18:07:24.913Z,46.00
2018-04-12T18:09:51.181Z,45.90
2018-04-12T18:12:17.468Z,45.90
2018-04-12T18:14:43.717Z,46.10
2018-04-12T18:17:09.993Z,46.30
2018-04-12T18:19:36.257Z,46.40
2018-04-12T18:22:02.479Z,46.40
2018-04-12T18:24:28.749Z,46.60
2018-04-12T18:26:55.749Z,47.00
2018-04-12T18:29:22.030Z,46.90
2018-04-12T18:31:48.305Z,47.00
2018-04-12T18:34:14.652Z,47.30
2018-04-12T18:36:41.666Z,47.70
2018-04-12T18:39:07.916Z,47.70
2018-04-12T18:41:34.226Z,47.80
2018-04-12T18:44:00.526Z,47.70
2018-04-12T18:46:26.816Z,48.00
2018-04-12T18:48:53.126Z,48.00
2018-04-12T18:51:19.438Z,48.00
2018-04-12T18:53:45.768Z,48.50
2018-04-12T18:56:12.059Z,49.10
2018-04-12T18:58:39.090Z,49.40
2018-04-12T19:01:05.366Z,49.30
2018-04-12T19:03:31.625Z,49.10
2018-04-12T19:05:57.917Z,48.70
2018-04-12T19:08:24.181Z,48.90
2018-04-12T19:10:50.508Z,50.00
2018-04-12T19:13:16.846Z,50.10
2018-04-12T19:15:43.133Z,50.20
2018-04-12T19:18:09.392Z,50.60
2018-04-12T19:20:35.702Z,50.70
2018-04-12T19:23:01.969Z,50.30
2018-04-12T19:25:28.246Z,50.20
2018-04-12T19:27:54.550Z,50.30
2018-04-12T19:30:21.573Z,50.60
2018-04-12T19:32:47.818Z,50.60
2018-04-12T19:35:14.827Z,51.10
2018-04-12T19:37:41.115Z,51.80
2018-04-12T19:40:07.437Z,51.30
2018-04-12T19:42:33.702Z,51.50
2018-04-12T19:44:59.987Z,51.40
2018-04-12T19:47:26.265Z,51.80
2018-04-12T19:49:52.506Z,52.10
2018-04-12T19:52:18.826Z,52.60
2018-04-12T19:54:45.106Z,53.20
2018-04-12T19:57:12.118Z,54.20
2018-04-12T19:59:38.422Z,54.10
2018-04-12T20:02:04.737Z,53.90
2018-04-12T20:04:31.017Z,53.80
2018-04-12T20:06:57.377Z,53.60
2018-04-12T20:09:24.401Z,53.50
2018-04-12T20:11:50.657Z,53.50
2018-04-12T20:14:17.673Z,53.80
2018-04-12T20:16:43.920Z,53.80
2018-04-12T20:19:10.147Z,53.80
2018-04-12T20:21:36.405Z,54.10
2018-04-12T20:24:02.671Z,54.60
2018-04-12T20:26:28.937Z,55.60
2018-04-12T20:28:55.233Z,55.90
2018-04-12T20:31:21.501Z,56.00
2018-04-12T20:33:47.783Z,55.70
2018-04-12T20:36:15.194Z,55.70
2018-04-12T20:38:41.406Z,55.70
2018-04-12T20:41:08.382Z,56.60
2018-04-12T20:43:34.648Z,56.50
2018-04-12T20:46:00.908Z,56.40
2018-04-12T20:48:27.869Z,56.40
2018-04-12T20:50:54.841Z,56.40
2018-04-12T20:53:21.089Z,56.40
2018-04-12T20:55:47.352Z,56.40
2018-04-12T20:58:14.414Z,57.30
2018-04-12T21:00:41.425Z,57.00
2018-04-12T21:03:07.689Z,57.00
2018-04-12T21:05:34.690Z,57.20
2018-04-12T21:08:00.956Z,57.10
2018-04-12T21:10:28.083Z,57.50
2018-04-12T21:12:54.333Z,57.60
2018-04-12T21:15:21.401Z,58.00
2018-04-12T21:17:47.668Z,57.90
2018-04-12T21:20:13.937Z,57.50
2018-04-12T21:22:40.931Z,57.60
2018-04-12T21:25:07.209Z,57.60
2018-04-12T21:27:34.241Z,57.10
2018-04-12T21:30:00.489Z,57.00
2018-04-12T21:32:26.741Z,57.30
2018-04-12T21:34:52.986Z,56.80
2018-04-12T21:37:19.301Z,56.90
2018-04-12T21:39:45.542Z,57.20
2018-04-12T21:42:11.798Z,57.20
2018-04-12T21:44:38.014Z,57.00
2018-04-12T21:47:04.229Z,56.90
2018-04-12T21:49:30.477Z,57.00
2018-04-12T21:51:56.742Z,57.10
2018-04-12T21:54:23.006Z,57.20
2018-04-12T21:56:49.288Z,57.00
2018-04-12T21:59:15.550Z,57.00
2018-04-12T22:01:41.848Z,56.70
2018-04-12T22:04:08.152Z,56.80
2018-04-12T22:06:34.463Z,57.20
2018-04-12T22:09:00.703Z,57.40
2018-04-12T22:11:27.014Z,57.30
2018-04-12T22:13:53.349Z,57.20
2018-04-12T22:16:19.681Z,57.70
2018-04-12T22:18:45.961Z,57.60
2018-04-12T22:21:13.017Z,57.90
2018-04-12T22:23:40.068Z,58.10
2018-04-12T22:26:07.080Z,58.20
2018-04-12T22:28:33.376Z,58.20
2018-04-12T22:30:59.613Z,58.30
2018-04-12T22:33:25.843Z,58.40
2018-04-12T22:35:52.086Z,58.60
2018-04-12T22:38:18.363Z,58.90
2018-04-12T22:40:44.653Z,59.10
2018-04-12T22:43:11.738Z,59.50
2018-04-12T22:45:38.291Z,60.00
2018-04-12T22:48:04.594Z,59.50
2018-04-12T22:50:31.653Z,59.50
2018-04-12T22:52:57.941Z,59.50
2018-04-12T22:55:24.226Z,59.40
2018-04-12T22:57:51.237Z,60.70
2018-04-12T23:00:17.487Z,60.70
2018-04-12T23:02:43.792Z,60.90
2018-04-12T23:05:10.097Z,60.90
2018-04-12T23:07:36.370Z,61.10
2018-04-12T23:10:02.717Z,61.10
2018-04-12T23:12:29.057Z,60.90
2018-04-12T23:14:55.341Z,62.50
2018-04-12T23:17:21.643Z,61.40
2018-04-12T23:19:47.961Z,61.40
2018-04-12T23:22:14.207Z,60.90
2018-04-12T23:24:40.445Z,61.10
2018-04-12T23:27:06.722Z,60.70
2018-04-12T23:29:33.101Z,61.10
2018-04-12T23:31:59.454Z,60.90
2018-04-12T23:34:26.470Z,60.50
2018-04-12T23:36:52.742Z,60.50
2018-04-12T23:39:19.712Z,60.00
2018-04-12T23:41:45.973Z,60.00
2018-04-12T23:44:12.241Z,60.00
2018-04-12T23:46:39.338Z,60.20
2018-04-12T23:49:05.579Z,60.10
2018-04-12T23:51:31.861Z,60.90
2018-04-12T23:53:58.234Z,61.20
2018-04-12T23:56:24.470Z,61.00
2018-04-12T23:58:50.716Z,61.70
